Time;durP1;ratioP1;P1;durP2;ratioP2;P2;SDS_P1;SDS_P2;PMS_P1;PMS_P2;Temp;Humidity;BMP_temperature;BMP_pressure;BME280_temperature;BME280_humidity;BME280_pressure;Samples;Min_cycle;Max_cycle;Signal;HPM_P1;HPM_P2
2022/08/25 00:01:50;;;;;;;6.25;3.10;;;22.40;99.90;;;;;;4957339;28;20055;-87
2022/08/25 00:04:17;;;;;;;4.53;2.95;;;22.30;99.90;;;;;;4956290;29;20431;-87
2022/08/25 00:06:44;;;;;;;3.85;2.67;;;22.30;99.90;;;;;;4956214;29;20058;-86
2022/08/25 00:09:12;;;;;;;3.70;2.63;;;22.20;99.90;;;;;;4943087;29;20071;-86
2022/08/25 00:11:39;;;;;;;4.70;2.95;;;22.20;99.90;;;;;;4957319;28;20047;-87
2022/08/25 00:14:18;;;;;;;6.63;2.63;;;22.20;99.90;;;;;;4958922;28;20055;-87
2022/08/25 00:16:45;;;;;;;3.25;2.80;;;22.20;99.90;;;;;;4956791;28;20058;-88
2022/08/25 00:19:15;;;;;;;3.83;2.72;;;22.20;99.90;;;;;;4957904;28;20051;-88
2022/08/25 00:21:42;;;;;;;3.42;2.78;;;22.50;99.90;;;;;;4955623;28;20057;-87
2022/08/25 00:24:13;;;;;;;3.97;2.75;;;22.10;99.90;;;;;;4956486;28;20131;-86
2022/08/25 00:26:45;;;;;;;3.47;2.78;;;22.30;99.90;;;;;;4956534;28;20047;-87
2022/08/25 00:29:11;;;;;;;4.55;2.80;;;22.10;99.90;;;;;;4955386;29;20058;-86
2022/08/25 00:31:38;;;;;;;4.60;3.10;;;22.10;99.90;;;;;;4939097;29;20051;-86
2022/08/25 00:34:06;;;;;;;4.35;2.75;;;22.00;99.90;;;;;;4956224;28;20047;-87
2022/08/25 00:36:33;;;;;;;4.60;2.83;;;22.00;99.90;;;;;;4954934;29;20051;-87
2022/08/25 00:38:59;;;;;;;7.60;3.00;;;22.00;99.90;;;;;;4955027;29;20064;-87
2022/08/25 00:41:25;;;;;;;3.47;2.53;;;21.90;99.90;;;;;;4954924;29;20058;-88
2022/08/25 00:43:57;;;;;;;4.35;3.10;;;22.00;99.90;;;;;;4938599;29;20190;-87
2022/08/25 00:46:29;;;;;;;3.75;2.30;;;21.90;99.90;;;;;;4954156;29;20055;-87
2022/08/25 00:48:58;;;;;;;3.17;2.50;;;21.90;99.90;;;;;;4956138;28;20047;-87
2022/08/25 00:51:37;;;;;;;3.67;2.22;;;21.90;99.90;;;;;;4954865;29;20043;-87
2022/08/25 00:54:04;;;;;;;6.60;2.78;;;21.80;99.90;;;;;;4939288;29;20055;-87
2022/08/25 00:56:30;;;;;;;4.95;2.67;;;21.90;99.90;;;;;;4954381;28;20129;-86
2022/08/25 00:58:59;;;;;;;2.40;2.15;;;21.80;99.90;;;;;;4954840;28;20059;-86
2022/08/25 01:01:25;;;;;;;3.00;2.60;;;21.80;99.90;;;;;;4955872;28;20133;-86
2022/08/25 01:03:51;;;;;;;5.15;2.55;;;21.80;99.90;;;;;;4938864;29;20050;-87
2022/08/25 01:06:17;;;;;;;3.40;2.33;;;21.70;99.90;;;;;;4938786;29;20039;-87
2022/08/25 01:08:42;;;;;;;4.63;2.70;;;21.70;99.90;;;;;;4955582;28;20403;-86
2022/08/25 01:11:09;;;;;;;3.00;2.70;;;;;;;;;;4938567;29;20115;-87
2022/08/25 01:13:49;;;;;;;3.72;2.63;;;21.60;99.90;;;;;;4954375;28;20403;-87
2022/08/25 01:16:15;;;;;;;6.57;3.08;;;21.60;99.90;;;;;;4937917;29;20058;-86
2022/08/25 01:18:51;;;;;;;3.33;2.40;;;21.60;99.90;;;;;;4954563;29;20138;-87
2022/08/25 01:21:20;;;;;;;3.28;2.38;;;21.50;99.90;;;;;;4938587;29;20134;-86
2022/08/25 01:23:46;;;;;;;3.75;2.50;;;21.50;99.90;;;;;;4955339;28;20051;-86
2022/08/25 01:26:22;;;;;;;3.22;2.50;;;21.50;99.90;;;;;;4954526;28;20078;-86
2022/08/25 01:31:35;;;;;;;5.05;2.53;;;21.50;99.90;;;;;;4954422;29;20059;-86
2022/08/25 01:34:01;;;;;;;4.13;2.50;;;21.50;99.90;;;;;;4954265;29;20051;-86
2022/08/25 01:36:29;;;;;;;3.70;2.38;;;21.50;99.90;;;;;;4954920;28;20381;-86
2022/08/25 01:38:55;;;;;;;5.50;2.25;;;21.40;99.90;;;;;;4955168;28;20043;-86
2022/08/25 01:41:33;;;;;;;4.32;2.17;;;21.40;99.90;;;;;;4954315;28;20074;-86
2022/08/25 01:44:00;;;;;;;4.80;2.30;;;21.40;99.90;;;;;;4954221;29;20051;-86
2022/08/25 01:46:26;;;;;;;5.53;2.55;;;21.40;99.90;;;;;;4953494;28;20447;-86
2022/08/25 01:48:52;;;;;;;3.25;2.30;;;21.40;99.90;;;;;;4953960;28;20062;-86
2022/08/25 01:51:22;;;;;;;3.42;2.58;;;21.40;99.90;;;;;;4955131;28;20047;-87
2022/08/25 01:53:49;;;;;;;3.55;2.20;;;21.40;99.90;;;;;;4939095;29;20043;-86
2022/08/25 01:56:16;;;;;;;3.15;2.20;;;21.40;99.90;;;;;;4956602;28;20079;-86
2022/08/25 01:58:46;;;;;;;5.05;2.60;;;21.30;99.90;;;;;;4958697;28;20121;-85
2022/08/25 02:01:16;;;;;;;6.38;2.47;;;21.30;99.90;;;;;;4957801;28;20535;-85
2022/08/25 02:03:46;;;;;;;3.22;2.30;;;21.30;99.90;;;;;;4957678;29;20043;-86
2022/08/25 02:06:14;;;;;;;4.95;2.47;;;21.30;99.90;;;;;;4958504;28;20049;-86
2022/08/25 02:08:40;;;;;;;3.60;2.53;;;21.30;99.90;;;;;;4957688;29;20051;-87
2022/08/25 02:11:10;;;;;;;4.32;2.75;;;21.20;99.90;;;;;;4957647;28;20126;-86
2022/08/25 02:13:37;;;;;;;3.70;2.53;;;21.20;99.90;;;;;;4957291;29;20050;-85
2022/08/25 02:16:03;;;;;;;4.10;2.63;;;21.20;99.90;;;;;;4956590;29;20082;-86
2022/08/25 02:18:30;;;;;;;4.72;2.33;;;21.20;99.90;;;;;;4957248;29;20480;-86
2022/08/25 02:20:56;;;;;;;5.78;2.97;;;21.10;99.90;;;;;;4941356;29;20051;-85
2022/08/25 02:23:22;;;;;;;4.63;2.80;;;21.10;99.90;;;;;;4958733;28;20111;-86
2022/08/25 02:25:47;;;;;;;4.43;2.70;;;21.10;99.90;;;;;;4957131;29;20518;-86
2022/08/25 02:28:13;;;;;;;3.38;2.70;;;21.00;99.90;;;;;;4941256;29;20057;-86
2022/08/25 02:30:41;;;;;;;3.95;2.58;;;21.00;99.90;;;;;;4958080;28;20138;-86
2022/08/25 02:33:07;;;;;;;3.92;2.60;;;21.00;99.90;;;;;;4958350;28;20047;-86
2022/08/25 02:35:34;;;;;;;5.95;2.88;;;21.00;99.90;;;;;;4956852;28;20055;-86
2022/08/25 02:37:59;;;;;;;5.60;2.97;;;21.00;99.90;;;;;;4958107;28;20560;-86
2022/08/25 02:40:26;;;;;;;7.82;2.88;;;21.00;99.90;;;;;;4941121;29;20090;-85
2022/08/25 02:42:52;;;;;;;6.90;2.60;;;20.90;99.90;;;;;;4940977;29;20047;-85
2022/08/25 02:45:18;;;;;;;4.00;3.10;;;20.90;99.90;;;;;;4956286;28;20109;-86
2022/08/25 02:47:44;;;;;;;3.17;2.55;;;20.90;99.90;;;;;;4957539;29;20047;-86
2022/08/25 02:50:11;;;;;;;3.50;2.53;;;20.90;99.90;;;;;;4941121;29;20447;-86
2022/08/25 02:52:37;;;;;;;5.75;2.95;;;20.90;99.90;;;;;;4957217;29;20399;-85
2022/08/25 02:55:06;;;;;;;6.20;2.83;;;20.90;99.90;;;;;;4957869;28;20099;-86
2022/08/25 02:57:31;;;;;;;3.63;2.80;;;20.80;99.90;;;;;;4956842;28;20051;-85
2022/08/25 02:59:58;;;;;;;3.38;2.75;;;20.80;99.90;;;;;;4956868;28;20073;-86
2022/08/25 03:02:25;;;;;;;6.57;2.75;;;20.80;99.90;;;;;;4956933;28;20542;-86
2022/08/25 03:04:52;;;;;;;4.05;2.83;;;20.80;99.90;;;;;;4956628;28;20050;-86
2022/08/25 03:07:19;;;;;;;4.85;3.20;;;20.80;99.90;;;;;;4955945;28;20047;-86
2022/08/25 03:09:45;;;;;;;2.72;2.40;;;20.80;99.90;;;;;;4956503;29;20098;-86
2022/08/25 03:12:12;;;;;;;3.72;2.67;;;20.80;99.90;;;;;;4957290;28;20495;-85
2022/08/25 03:14:39;;;;;;;4.97;3.40;;;20.80;99.90;;;;;;4957314;28;20644;-86
2022/08/25 03:17:06;;;;;;;4.25;3.13;;;20.80;99.90;;;;;;4955719;29;20087;-86
2022/08/25 03:19:32;;;;;;;5.45;2.85;;;20.70;99.90;;;;;;4940579;29;20316;-86
2022/08/25 03:21:58;;;;;;;5.18;3.42;;;20.70;99.90;;;;;;4956376;29;20402;-86
2022/08/25 03:24:25;;;;;;;6.70;3.05;;;20.70;99.90;;;;;;4940543;29;20048;-86
2022/08/25 03:26:54;;;;;;;8.07;3.00;;;20.70;99.90;;;;;;4956077;29;20142;-85
2022/08/25 03:29:31;;;;;;;4.40;3.80;;;20.60;99.90;;;;;;4956046;29;20047;-85
2022/08/25 03:31:58;;;;;;;5.07;3.50;;;20.60;99.90;;;;;;4956284;29;20399;-85
2022/08/25 03:34:26;;;;;;;6.38;3.63;;;20.60;99.90;;;;;;4957116;28;20054;-85
2022/08/25 03:36:53;;;;;;;5.55;3.53;;;20.60;99.90;;;;;;4940048;29;20142;-85
2022/08/25 03:39:22;;;;;;;7.50;3.60;;;20.60;99.90;;;;;;4955604;28;20093;-85
2022/08/25 03:41:48;;;;;;;6.20;3.72;;;20.50;99.90;;;;;;4956158;29;20108;-85
2022/08/25 03:44:15;;;;;;;6.13;3.95;;;20.50;99.90;;;;;;4956334;28;20047;-86
2022/08/25 03:46:45;;;;;;;4.28;3.22;;;20.60;99.90;;;;;;4956298;28;20043;-85
2022/08/25 03:49:14;;;;;;;5.22;3.63;;;20.50;99.90;;;;;;4955847;28;20055;-86
2022/08/25 03:51:44;;;;;;;6.00;3.97;;;20.50;99.90;;;;;;4955834;29;20048;-86
2022/08/25 03:54:10;;;;;;;6.93;3.83;;;20.50;99.90;;;;;;4955614;29;20484;-86
2022/08/25 03:56:37;;;;;;;4.65;4.10;;;20.50;99.90;;;;;;4957260;28;20050;-86
2022/08/25 03:59:03;;;;;;;5.70;3.65;;;20.50;99.90;;;;;;4955770;29;20059;-85
2022/08/25 04:01:28;;;;;;;4.78;3.50;;;20.50;99.90;;;;;;4955846;28;20047;-86
2022/08/25 04:03:55;;;;;;;6.85;4.35;;;20.40;99.90;;;;;;4955541;29;20047;-86
2022/08/25 04:06:22;;;;;;;6.50;4.03;;;20.40;99.90;;;;;;4956355;28;20048;-86
2022/08/25 04:08:48;;;;;;;8.25;3.90;;;20.40;99.90;;;;;;4956045;28;20052;-86
2022/08/25 04:11:17;;;;;;;7.80;3.70;;;20.40;99.90;;;;;;4939508;29;20051;-86
2022/08/25 04:13:47;;;;;;;5.68;3.85;;;20.40;99.90;;;;;;4955243;28;20402;-86
2022/08/25 04:16:17;;;;;;;6.35;4.03;;;20.40;99.90;;;;;;4954619;29;20118;-86
2022/08/25 04:18:43;;;;;;;5.15;3.72;;;20.40;99.90;;;;;;4956099;28;20051;-86
2022/08/25 04:21:11;;;;;;;6.35;4.32;;;20.30;99.90;;;;;;4955061;29;20138;-86
2022/08/25 04:23:39;;;;;;;4.65;3.78;;;20.30;99.90;;;;;;4955100;29;20047;-86
2022/08/25 04:26:27;;;;;;;7.20;4.20;;;20.30;99.90;;;;;;4956134;28;20046;-86
2022/08/25 04:28:55;;;;;;;7.18;4.03;;;20.30;99.90;;;;;;4956246;28;20078;-86
2022/08/25 04:31:21;;;;;;;5.72;3.90;;;20.30;99.90;;;;;;4956048;28;20047;-86
2022/08/25 04:33:48;;;;;;;6.22;4.30;;;20.30;99.90;;;;;;4955083;29;20047;-85
2022/08/25 04:36:15;;;;;;;5.35;4.35;;;20.30;99.90;;;;;;4955072;28;20456;-85
2022/08/25 04:38:42;;;;;;;5.07;4.32;;;20.20;99.90;;;;;;4955046;28;20142;-86
2022/08/25 04:41:09;;;;;;;7.57;4.68;;;20.20;99.90;;;;;;4955088;29;20470;-85
2022/08/25 04:43:38;;;;;;;6.88;3.67;;;20.20;99.90;;;;;;4955992;28;20047;-86
2022/08/25 04:46:19;;;;;;;5.18;4.05;;;20.20;99.90;;;;;;4955088;28;20051;-86
2022/08/25 04:48:45;;;;;;;7.28;4.18;;;20.20;99.90;;;;;;4956048;28;20388;-87
2022/08/25 04:51:15;;;;;;;6.30;3.83;;;20.20;99.90;;;;;;4954919;28;20051;-86
2022/08/25 04:53:41;;;;;;;5.63;4.22;;;20.20;99.90;;;;;;4955948;28;20443;-86
2022/08/25 04:56:10;;;;;;;4.88;4.00;;;20.20;99.90;;;;;;4954372;29;20527;-85
2022/08/25 04:58:37;;;;;;;4.88;4.38;;;20.20;99.90;;;;;;4954409;29;20062;-86
2022/08/25 05:01:14;;;;;;;6.85;4.00;;;20.20;99.90;;;;;;4954716;29;20051;-85
2022/08/25 05:03:40;;;;;;;7.25;4.53;;;20.20;99.90;;;;;;4954783;29;20483;-86
2022/08/25 05:06:06;;;;;;;7.60;4.47;;;20.20;99.90;;;;;;4954592;28;20050;-86
2022/08/25 05:08:33;;;;;;;7.60;4.35;;;20.20;99.90;;;;;;4954227;29;20055;-86
2022/08/25 05:11:03;;;;;;;6.60;4.47;;;20.20;99.90;;;;;;4955392;28;20042;-85
2022/08/25 05:13:29;;;;;;;5.35;4.38;;;20.20;99.90;;;;;;4954577;29;20560;-83
2022/08/25 05:15:57;;;;;;;6.90;4.72;;;20.20;99.90;;;;;;4937675;29;20170;-87
2022/08/25 05:18:25;;;;;;;6.57;4.40;;;20.20;99.90;;;;;;4954477;29;20062;-76
2022/08/25 05:20:53;;;;;;;5.55;4.90;;;20.20;99.90;;;;;;4955150;28;20150;-75
2022/08/25 05:23:20;;;;;;;7.20;4.50;;;20.20;99.90;;;;;;4955359;28;20431;-75
2022/08/25 05:25:46;;;;;;;5.97;4.22;;;20.30;99.90;;;;;;4953830;28;20039;-75
2022/08/25 05:28:12;;;;;;;6.07;4.80;;;20.20;99.90;;;;;;4955433;28;20130;-75
2022/08/25 05:30:39;;;;;;;6.50;4.90;;;20.20;99.90;;;;;;4953788;28;20062;-75
2022/08/25 05:33:05;;;;;;;6.65;5.22;;;20.20;99.90;;;;;;4955168;28;20051;-75
2022/08/25 05:35:31;;;;;;;6.90;5.13;;;20.20;99.90;;;;;;4954260;29;20047;-75
2022/08/25 05:37:57;;;;;;;7.05;5.35;;;20.20;99.90;;;;;;4955124;28;20127;-75
2022/08/25 05:40:23;;;;;;;7.38;4.93;;;20.20;99.90;;;;;;4954912;28;20102;-75
2022/08/25 05:42:50;;;;;;;10.98;5.50;;;20.20;99.90;;;;;;4955263;28;20044;-75
2022/08/25 05:45:16;;;;;;;9.52;5.28;;;20.30;99.90;;;;;;4954643;28;20444;-75
2022/08/25 05:47:43;;;;;;;10.18;6.15;;;20.30;99.90;;;;;;4954268;29;20414;-75
2022/08/25 05:50:09;;;;;;;6.80;5.50;;;20.30;99.90;;;;;;4954008;28;20511;-75
2022/08/25 05:52:34;;;;;;;9.20;5.60;;;20.30;99.90;;;;;;4954925;28;20055;-75
2022/08/25 05:55:00;;;;;;;8.43;5.40;;;20.30;99.90;;;;;;4953799;29;20052;-75
2022/08/25 05:57:26;;;;;;;8.13;5.47;;;20.40;99.90;;;;;;4955107;28;20051;-76
2022/08/25 05:59:52;;;;;;;8.18;5.97;;;20.40;99.90;;;;;;4954021;28;20058;-75
2022/08/25 06:05:02;;;;;;;7.43;5.70;;;20.40;99.90;;;;;;4954812;28;20044;-75
2022/08/25 06:07:28;;;;;;;8.98;5.88;;;20.40;99.90;;;;;;4954733;28;20086;-75
2022/08/25 06:09:54;;;;;;;9.20;5.57;;;20.50;99.90;;;;;;4953961;29;20075;-75
2022/08/25 06:12:20;;;;;;;6.85;4.90;;;20.50;99.90;;;;;;4954933;28;20055;-76
2022/08/25 06:14:47;;;;;;;8.20;5.40;;;20.50;99.90;;;;;;4954575;28;20078;-76
2022/08/25 06:17:13;;;;;;;9.00;5.63;;;20.50;99.90;;;;;;4954362;28;20058;-75
2022/08/25 06:19:39;;;;;;;7.95;5.43;;;20.60;99.90;;;;;;4953508;29;20043;-76
2022/08/25 06:22:05;;;;;;;7.70;6.25;;;20.60;99.90;;;;;;4954751;28;20102;-76
2022/08/25 06:24:32;;;;;;;6.40;5.50;;;20.70;99.90;;;;;;4954873;28;20109;-75
2022/08/25 06:26:57;;;;;;;9.15;5.82;;;20.70;99.90;;;;;;4954855;28;20047;-75
2022/08/25 06:29:24;;;;;;;7.93;5.38;;;20.70;99.90;;;;;;4954874;28;20048;-75
2022/08/25 06:31:49;;;;;;;7.80;5.43;;;20.70;99.90;;;;;;4953909;28;20406;-75
2022/08/25 06:34:16;;;;;;;9.38;5.50;;;20.80;99.90;;;;;;4953538;28;20047;-75
2022/08/25 06:36:42;;;;;;;10.82;5.53;;;20.80;99.90;;;;;;4953213;28;20051;-75
2022/08/25 06:39:08;;;;;;;9.75;5.85;;;20.90;99.90;;;;;;4953601;28;20066;-75
2022/08/25 06:41:34;;;;;;;7.78;5.30;;;20.90;99.90;;;;;;4953414;28;20043;-75
2022/08/25 06:44:00;;;;;;;9.27;6.18;;;20.90;99.90;;;;;;4957171;28;20400;-76
2022/08/25 06:46:26;;;;;;;7.78;5.70;;;21.00;99.90;;;;;;4957426;28;20130;-76
2022/08/25 06:48:53;;;;;;;8.50;5.28;;;21.00;99.90;;;;;;4957823;28;20055;-76
2022/08/25 06:51:21;;;;;;;9.52;5.38;;;21.10;99.90;;;;;;4957633;28;20067;-76
2022/08/25 06:53:48;;;;;;;8.02;6.22;;;21.10;99.90;;;;;;4957915;28;20055;-75
2022/08/25 06:56:15;;;;;;;7.18;5.38;;;21.20;99.90;;;;;;4957735;28;20054;-76
2022/08/25 06:58:41;;;;;;;8.35;5.57;;;21.10;99.90;;;;;;4958115;28;20074;-76
2022/08/25 07:01:09;;;;;;;7.80;5.55;;;21.20;99.90;;;;;;4967948;28;20039;-76
2022/08/25 07:03:35;;;;;;;8.13;5.30;;;21.20;99.90;;;;;;4996235;28;20093;-77
2022/08/25 07:06:01;;;;;;;7.15;5.47;;;21.30;99.90;;;;;;4995537;28;20090;-76
2022/08/25 07:08:27;;;;;;;7.55;5.15;;;21.40;99.90;;;;;;4996470;28;20057;-75
2022/08/25 07:10:52;;;;;;;8.40;5.00;;;21.40;99.90;;;;;;4996296;28;20054;-75
2022/08/25 07:13:18;;;;;;;7.13;5.03;;;21.40;99.90;;;;;;4995248;28;20177;-77
2022/08/25 07:15:44;;;;;;;6.38;5.07;;;21.50;99.90;;;;;;4962377;28;20061;-77
2022/08/25 07:18:10;;;;;;;6.40;4.82;;;21.60;99.90;;;;;;4996106;28;20046;-76
2022/08/25 07:20:38;;;;;;;7.47;4.85;;;21.60;99.90;;;;;;4995187;28;20058;-76
2022/08/25 07:23:06;;;;;;;9.38;4.57;;;21.70;99.90;;;;;;4995313;28;20078;-76
2022/08/25 07:25:33;;;;;;;7.43;4.68;;;21.70;99.90;;;;;;4995997;28;20478;-76
2022/08/25 07:27:58;;;;;;;5.70;4.38;;;21.80;99.90;;;;;;4995163;28;20147;-77
2022/08/25 07:30:24;;;;;;;6.93;4.30;;;21.80;99.90;;;;;;4995079;28;20078;-77
2022/08/25 07:32:50;;;;;;;6.35;4.57;;;21.90;99.90;;;;;;4978629;28;20054;-80
2022/08/25 07:35:16;;;;;;;6.05;4.80;;;22.00;99.90;;;;;;4996161;28;20047;-77
2022/08/25 07:37:48;;;;;;;8.18;4.38;;;22.00;99.90;;;;;;4995160;28;20508;-76
2022/08/25 07:40:21;;;;;;;7.25;4.68;;;22.10;99.90;;;;;;4995275;28;20096;-74
2022/08/25 07:42:52;;;;;;;6.75;4.03;;;22.10;99.90;;;;;;4994900;28;20046;-76
2022/08/25 07:45:20;;;;;;;8.75;4.10;;;22.20;99.90;;;;;;4995187;28;20054;-76
2022/08/25 07:47:46;;;;;;;11.82;4.22;;;22.20;99.90;;;;;;4995903;28;20046;-76
2022/08/25 07:50:12;;;;;;;5.60;3.85;;;22.30;99.90;;;;;;4994806;28;20049;-75
2022/08/25 07:52:39;;;;;;;6.03;3.90;;;22.40;99.90;;;;;;4994837;28;20050;-75
2022/08/25 07:55:06;;;;;;;5.90;4.20;;;22.40;99.90;;;;;;4995036;28;20540;-75
2022/08/25 07:57:33;;;;;;;5.90;3.83;;;22.50;99.90;;;;;;4995549;28;20423;-75
2022/08/25 07:59:58;;;;;;;4.72;3.83;;;22.50;99.90;;;;;;4995319;28;20070;-74
2022/08/25 08:02:25;;;;;;;6.00;3.85;;;22.60;99.90;;;;;;4994736;28;20463;-76
2022/08/25 08:04:52;;;;;;;7.22;3.90;;;22.70;99.90;;;;;;4978346;28;20125;-75
2022/08/25 08:07:23;;;;;;;7.85;4.25;;;22.70;99.90;;;;;;4995521;28;20050;-78
2022/08/25 08:09:50;;;;;;;6.15;3.63;;;22.80;99.90;;;;;;4995289;28;20128;-78
2022/08/25 08:12:16;;;;;;;5.65;4.25;;;22.80;99.90;;;;;;4994343;28;20478;-78
2022/08/25 08:14:42;;;;;;;6.30;3.67;;;22.80;99.90;;;;;;4993798;28;20137;-78
2022/08/25 08:17:08;;;;;;;5.38;4.38;;;22.90;99.90;;;;;;4994876;28;20058;-78
2022/08/25 08:19:35;;;;;;;5.90;3.90;;;23.00;99.90;;;;;;4993980;28;20418;-77
2022/08/25 08:22:03;;;;;;;7.30;3.97;;;23.00;99.90;;;;;;4994248;28;20133;-77
2022/08/25 08:24:31;;;;;;;4.97;4.00;;;23.10;99.90;;;;;;4995001;28;20053;-78
2022/08/25 08:26:57;;;;;;;6.30;3.72;;;23.20;99.90;;;;;;4994847;28;20046;-78
2022/08/25 08:29:23;;;;;;;5.78;3.95;;;23.20;99.90;;;;;;4994772;28;20054;-77
2022/08/25 08:31:49;;;;;;;6.75;4.22;;;23.30;99.90;;;;;;4993945;28;20510;-79
2022/08/25 08:34:15;;;;;;;5.75;4.43;;;23.50;99.90;;;;;;4993770;28;20054;-78
2022/08/25 08:36:41;;;;;;;6.95;4.35;;;23.50;99.90;;;;;;4993575;28;20043;-78
2022/08/25 08:39:07;;;;;;;5.38;3.85;;;23.60;99.90;;;;;;4994664;28;20051;-78
2022/08/25 08:44:44;;;;;;;6.68;4.20;;;23.70;99.90;;;;;;4994822;28;20061;-76
2022/08/25 08:47:56;;;;;;;8.05;4.00;;;23.80;99.90;;;;;;4994369;28;20042;-81
2022/08/25 08:50:33;;;;;;;5.25;3.90;;;23.80;99.90;;;;;;4990235;28;20050;-76
2022/08/25 08:53:18;;;;;;;6.30;3.75;;;23.90;99.90;;;;;;4964066;28;20043;-77
2022/08/25 08:55:47;;;;;;;4.53;4.10;;;23.80;99.90;;;;;;4965441;28;20047;-77
2022/08/25 08:58:22;;;;;;;6.38;4.10;;;23.80;99.90;;;;;;4963860;28;20102;-77
2022/08/25 09:00:57;;;;;;;6.75;4.30;;;24.10;99.90;;;;;;4947143;28;20479;-77
2022/08/25 09:03:48;;;;;;;4.78;4.32;;;24.00;99.90;;;;;;4965670;28;20047;-77
2022/08/25 09:06:32;;;;;;;5.47;4.60;;;24.20;99.90;;;;;;4962794;28;20114;-78
2022/08/25 09:09:01;;;;;;;5.55;4.20;;;24.30;99.90;;;;;;4963857;28;20068;-78
2022/08/25 09:11:52;;;;;;;6.35;4.47;;;24.30;99.90;;;;;;4966601;28;20373;-79
2022/08/25 09:14:38;;;;;;;6.32;4.80;;;24.40;99.90;;;;;;4968693;28;20174;-77
2022/08/25 09:17:21;;;;;;;7.47;4.95;;;24.30;99.90;;;;;;4965413;28;20055;-77
2022/08/25 09:20:01;;;;;;;9.10;5.28;;;24.30;99.90;;;;;;4965854;28;20101;-78
2022/08/25 09:22:46;;;;;;;5.50;4.90;;;24.50;99.90;;;;;;4966365;28;20125;-77
2022/08/25 09:25:39;;;;;;;15.57;7.35;;;24.50;99.90;;;;;;4964683;28;20050;-77
2022/08/25 09:28:29;;;;;;;6.72;4.82;;;24.60;99.90;;;;;;4963766;28;20038;-77
2022/08/25 09:31:08;;;;;;;6.40;4.60;;;24.60;99.90;;;;;;4962908;28;20058;-77
2022/08/25 09:33:34;;;;;;;6.95;4.78;;;24.70;99.90;;;;;;4966599;28;20376;-76
2022/08/25 09:36:00;;;;;;;6.03;3.90;;;24.70;99.90;;;;;;4967135;28;20572;-77
2022/08/25 09:38:27;;;;;;;6.80;3.60;;;24.90;99.90;;;;;;4967153;28;20365;-76
2022/08/25 09:40:56;;;;;;;5.18;3.45;;;24.80;99.90;;;;;;4966596;28;20078;-77
2022/08/25 09:43:34;;;;;;;5.63;4.35;;;25.10;99.90;;;;;;4967780;28;20616;-76
2022/08/25 09:46:10;;;;;;;7.78;4.20;;;;;;;;;;4968660;28;20062;-76
2022/08/25 09:48:52;;;;;;;4.70;3.53;;;25.00;99.90;;;;;;4965954;28;20410;-77
2022/08/25 09:51:26;;;;;;;6.13;3.33;;;25.00;99.90;;;;;;4967485;28;20046;-75
2022/08/25 09:53:58;;;;;;;5.70;4.00;;;25.00;99.90;;;;;;4965294;28;20057;-76
2022/08/25 09:56:27;;;;;;;6.25;3.45;;;25.10;99.90;;;;;;4963765;28;20078;-78
2022/08/25 09:58:54;;;;;;;5.38;3.78;;;25.20;99.90;;;;;;4966461;28;20173;-76
2022/08/25 10:01:22;;;;;;;4.10;3.10;;;25.30;99.90;;;;;;4968998;28;20054;-76
2022/08/25 10:04:04;;;;;;;4.80;3.28;;;25.30;99.90;;;;;;4968198;28;20043;-76
2022/08/25 10:06:41;;;;;;;6.05;3.58;;;25.40;99.90;;;;;;4966281;28;20121;-76
2022/08/25 10:09:07;;;;;;;6.47;3.72;;;25.40;99.90;;;;;;4965300;28;20126;-77
2022/08/25 10:11:47;;;;;;;5.20;3.00;;;25.50;99.90;;;;;;4964797;28;20058;-76
2022/08/25 10:14:17;;;;;;;4.45;3.90;;;25.50;99.90;;;;;;4966233;28;20066;-77
2022/08/25 10:16:45;;;;;;;5.85;3.38;;;25.50;99.90;;;;;;4965003;28;20043;-77
2022/08/25 10:19:13;;;;;;;5.07;3.83;;;25.60;99.90;;;;;;4970865;28;20074;-77
2022/08/25 10:21:41;;;;;;;6.63;3.72;;;25.80;99.90;;;;;;4970477;28;20050;-75
2022/08/25 10:24:09;;;;;;;4.75;3.20;;;25.90;99.90;;;;;;4972354;28;20054;-74
2022/08/25 10:27:02;;;;;;;5.75;2.85;;;26.00;99.90;;;;;;4972294;28;20129;-76
2022/08/25 10:29:46;;;;;;;4.70;3.05;;;25.90;99.90;;;;;;4956092;28;20047;-76
2022/08/25 10:32:26;;;;;;;5.93;2.83;;;26.10;99.90;;;;;;4971787;28;20109;-76
2022/08/25 10:34:58;;;;;;;6.10;2.83;;;26.00;99.90;;;;;;4971625;28;20042;-75
2022/08/25 10:37:52;;;;;;;6.97;3.47;;;26.10;99.90;;;;;;4953294;28;20134;-76
2022/08/25 10:40:43;;;;;;;5.80;2.67;;;26.10;99.90;;;;;;4967246;28;20062;-76
2022/08/25 10:43:27;;;;;;;5.93;2.72;;;26.20;99.90;;;;;;4970191;28;20054;-76
2022/08/25 10:46:14;;;;;;;4.53;3.97;;;26.30;99.90;;;;;;4968291;28;20062;-76
2022/08/25 10:49:00;;;;;;;3.50;2.70;;;26.30;99.90;;;;;;4971372;28;20486;-76
2022/08/25 10:52:00;;;;;;;5.32;3.10;;;26.30;99.90;;;;;;4968249;28;20055;-76
2022/08/25 10:54:39;;;;;;;4.70;2.90;;;26.40;99.90;;;;;;4971645;28;20165;-76
2022/08/25 10:57:32;;;;;;;3.90;2.60;;;26.60;99.90;;;;;;4967216;28;20054;-77
2022/08/25 11:00:12;;;;;;;6.20;3.25;;;26.40;99.90;;;;;;4968070;28;20101;-76
2022/08/25 11:02:41;;;;;;;6.13;2.97;;;26.50;99.90;;;;;;4967421;28;20503;-76
2022/08/25 11:05:09;;;;;;;3.25;2.92;;;26.60;99.90;;;;;;4967515;28;20050;-76
2022/08/25 11:07:41;;;;;;;3.20;2.90;;;26.70;99.90;;;;;;4970114;28;20050;-76
2022/08/25 11:10:13;;;;;;;5.80;2.83;;;26.80;99.90;;;;;;4969511;28;20085;-76
2022/08/25 11:12:54;;;;;;;3.10;2.80;;;26.60;99.90;;;;;;4969570;28;20054;-76
2022/08/25 11:15:26;;;;;;;4.07;2.85;;;26.90;99.90;;;;;;4969386;28;20054;-76
2022/08/25 11:18:04;;;;;;;3.13;2.70;;;26.80;99.90;;;;;;4971040;28;20043;-82
2022/08/25 11:20:40;;;;;;;4.63;2.28;;;26.80;99.90;;;;;;4970971;28;20567;-82
2022/08/25 11:23:18;;;;;;;2.95;2.13;;;26.90;99.90;;;;;;4969680;28;20038;-82
2022/08/25 11:25:50;;;;;;;2.40;1.80;;;26.90;98.90;;;;;;4967587;28;20504;-80
2022/08/25 11:28:38;;;;;;;4.43;2.20;;;26.90;98.10;;;;;;4964507;28;20042;-80
2022/08/25 11:31:05;;;;;;;3.03;1.90;;;27.00;98.00;;;;;;4970626;28;20089;-80
2022/08/25 11:33:32;;;;;;;4.65;2.00;;;27.00;97.60;;;;;;4969139;28;20149;-80
2022/08/25 11:36:21;;;;;;;4.00;1.95;;;27.10;96.80;;;;;;4968639;28;20118;-81
2022/08/25 11:38:59;;;;;;;4.30;2.00;;;27.10;97.30;;;;;;4966736;28;20054;-81
2022/08/25 11:41:43;;;;;;;3.42;2.25;;;27.20;96.80;;;;;;4964298;28;20380;-80
2022/08/25 11:44:30;;;;;;;3.47;1.90;;;27.30;97.10;;;;;;4967246;28;21075;-80
2022/08/25 11:46:59;;;;;;;4.07;1.90;;;27.50;96.40;;;;;;4965202;28;20059;-81
2022/08/25 11:49:53;;;;;;;3.90;1.92;;;27.30;95.70;;;;;;4966254;28;20601;-80
2022/08/25 11:52:34;;;;;;;5.72;2.10;;;27.30;95.50;;;;;;4945730;28;20054;-80
2022/08/25 11:55:06;;;;;;;3.33;1.83;;;27.50;94.70;;;;;;4965248;28;20058;-80
2022/08/25 11:57:32;;;;;;;3.72;2.22;;;24.10;92.20;;;;;;4969086;28;20051;-81
2022/08/25 12:00:09;;;;;;;4.25;2.00;;;27.40;92.90;;;;;;4969960;28;20516;-80
2022/08/25 12:02:50;;;;;;;4.50;2.40;;;27.50;95.40;;;;;;4969137;28;20138;-82
2022/08/25 12:05:18;;;;;;;2.55;2.05;;;27.60;95.20;;;;;;4964370;28;20117;-81
2022/08/25 12:07:47;;;;;;;2.55;2.00;;;27.70;94.30;;;;;;4969586;28;20497;-82
2022/08/25 12:10:55;;;;;;;3.58;2.00;;;27.60;92.30;;;;;;4966850;28;20074;-82
2022/08/25 12:13:45;;;;;;;2.15;1.85;;;27.70;91.40;;;;;;4969987;28;20498;-83
2022/08/25 12:16:41;;;;;;;3.75;1.98;;;27.70;92.00;;;;;;4965839;28;20074;-80
2022/08/25 12:19:34;;;;;;;3.13;1.83;;;27.70;92.40;;;;;;4965353;28;20130;-80
2022/08/25 12:22:02;;;;;;;3.63;2.00;;;27.70;92.40;;;;;;4965071;28;20043;-80
2022/08/25 12:24:46;;;;;;;4.63;2.30;;;27.70;92.20;;;;;;4964331;28;20491;-81
2022/08/25 12:27:32;;;;;;;6.45;2.33;;;27.80;92.10;;;;;;4968107;28;20047;-86
2022/08/25 12:30:17;;;;;;;4.10;2.17;;;27.80;91.30;;;;;;4964468;28;20137;-81
2022/08/25 12:32:59;;;;;;;6.03;2.10;;;27.90;90.90;;;;;;4964614;28;20135;-79
2022/08/25 12:35:56;;;;;;;2.38;2.10;;;28.00;90.90;;;;;;4966201;28;20039;-81
2022/08/25 12:38:42;;;;;;;3.05;1.67;;;28.00;90.60;;;;;;4949217;28;20047;-81
2022/08/25 12:41:12;;;;;;;6.00;2.28;;;28.20;90.80;;;;;;4989053;28;20046;-81
2022/08/25 12:43:42;;;;;;;2.97;1.88;;;28.00;90.10;;;;;;4963357;28;20057;-82
2022/08/25 12:46:20;;;;;;;4.68;2.22;;;28.10;89.80;;;;;;4963194;28;20514;-78
2022/08/25 12:48:55;;;;;;;6.55;2.00;;;28.10;90.10;;;;;;4965713;28;20411;-79
2022/08/25 12:51:45;;;;;;;5.47;2.03;;;28.10;88.90;;;;;;4964913;28;20039;-78
2022/08/25 12:54:34;;;;;;;3.33;1.92;;;28.10;87.00;;;;;;4959821;28;20113;-80
2022/08/25 12:57:06;;;;;;;3.35;2.00;;;28.20;87.90;;;;;;4965375;28;20121;-80
2022/08/25 12:59:36;;;;;;;4.15;2.00;;;28.20;86.40;;;;;;4965024;28;20533;-82
2022/08/25 13:02:23;;;;;;;3.85;2.30;;;28.20;86.00;;;;;;4963922;28;20138;-80
2022/08/25 13:05:12;;;;;;;4.40;2.13;;;28.20;85.30;;;;;;4965955;28;20050;-79
2022/08/25 13:07:53;;;;;;;2.22;2.03;;;28.20;85.30;;;;;;4963213;28;20062;-82
2022/08/25 13:10:32;;;;;;;3.20;1.90;;;28.30;86.30;;;;;;4947603;28;20086;-80
2022/08/25 13:13:38;;;;;;;3.83;2.28;;;28.30;85.80;;;;;;4963492;28;20054;-79
2022/08/25 13:16:08;;;;;;;5.47;2.40;;;28.30;86.60;;;;;;4964545;28;20039;-81
2022/08/25 13:18:37;;;;;;;4.97;2.15;;;28.40;85.90;;;;;;4962322;28;20134;-81